FOC weather

Fuzhou Changle International Airport
Fuzhou, Fujian Province, China

Public forecast

Using degrees Celsius for public forecast. Weather courtesy of forecast.io.

Current aviation weather report (METAR) for Fuzhou Changle International Airport

Retrieved 2019/11/22 06:00 UTC (16 minutes ago):

ZSFZ 220600Z 02005MPS 340V040 9999 BKN017 OVC027 21/16 Q1017 NOSIG

Aviation forecast (TAF) for Fuzhou Changle International Airport

Retrieved 2019/11/22 06:00 UTC (16 minutes ago):

TAF ZSFZ 220308Z 2206/2306 04004MPS 6000 BKN015 TX22/2206Z TN16/2221Z